SBI7005 UNNT-UNEE
Flight info
| Callsign | SBI7005 |
|---|---|
| Flight time | 0h 27m |
| Altitude | 23000 |
| Route | OGATI |
| Aircraft | A320/M-SDE3FGHIRWY/LB1 |
Departure
| Time | 2026-05-08 07:09 |
|---|---|
| Airport | Novosibirsk Tolmachevo Airport (UNNT) |
Arrival
| Time | 2026-05-08 07:37 |
|---|---|
| Airport | Alexei Leonov Kemerovo International Airport (UNEE) |
| Time | Latitude | Longitude | Altitude | Speed | Heading |
|---|---|---|---|---|---|
| 2026-05-08 07:06 | 55.01068 | 82.66329 | 373 ft | 0 kts | 171° |
| 2026-05-08 07:07 | 55.01064 | 82.66330 | 373 ft | 3 kts | 171° |
| 2026-05-08 07:07 | 55.01024 | 82.66356 | 373 ft | 6 kts | 136° |
| 2026-05-08 07:07 | 55.01034 | 82.66440 | 400 ft | 10 kts | 68° |
| 2026-05-08 07:07 | 55.01066 | 82.66579 | 373 ft | 15 kts | 67° |
| 2026-05-08 07:08 | 55.01146 | 82.66651 | 373 ft | 9 kts | 354° |
| 2026-05-08 07:08 | 55.01227 | 82.66632 | 373 ft | 14 kts | 349° |
| 2026-05-08 07:08 | 55.01342 | 82.66600 | 374 ft | 18 kts | 351° |
| 2026-05-08 07:08 | 55.01372 | 82.66468 | 375 ft | 15 kts | 262° |
| 2026-05-08 07:09 | 55.01337 | 82.66087 | 372 ft | 66 kts | 261° |
| 2026-05-08 07:09 | 55.01227 | 82.64892 | 372 ft | 131 kts | 261° |
| 2026-05-08 07:09 | 55.01068 | 82.63101 | 711 ft | 154 kts | 261° |
| 2026-05-08 07:09 | 55.00904 | 82.61252 | 1475 ft | 154 kts | 261° |
| 2026-05-08 07:10 | 55.00729 | 82.59323 | 2138 ft | 171 kts | 261° |
| 2026-05-08 07:10 | 55.00528 | 82.57143 | 2594 ft | 194 kts | 262° |
| 2026-05-08 07:10 | 55.00365 | 82.54676 | 3130 ft | 217 kts | 275° |
| 2026-05-08 07:10 | 55.00993 | 82.52152 | 3649 ft | 241 kts | 315° |
| 2026-05-08 07:11 | 55.02498 | 82.50792 | 4316 ft | 259 kts | 352° |
| 2026-05-08 07:11 | 55.04294 | 82.51322 | 5284 ft | 267 kts | 27° |
| 2026-05-08 07:11 | 55.05612 | 82.53603 | 6294 ft | 274 kts | 62° |
| 2026-05-08 07:11 | 55.05995 | 82.56856 | 7225 ft | 282 kts | 95° |
| 2026-05-08 07:12 | 55.05415 | 82.60154 | 8149 ft | 288 kts | 113° |
| 2026-05-08 07:12 | 55.04611 | 82.63386 | 9087 ft | 293 kts | 113° |
| 2026-05-08 07:12 | 55.03793 | 82.66668 | 9996 ft | 298 kts | 113° |
| 2026-05-08 07:12 | 55.02934 | 82.70099 | 10452 ft | 321 kts | 114° |
| 2026-05-08 07:13 | 55.01992 | 82.73786 | 10772 ft | 345 kts | 116° |
| 2026-05-08 07:13 | 55.00879 | 82.77610 | 11278 ft | 359 kts | 116° |
| 2026-05-08 07:13 | 54.99831 | 82.81597 | 12018 ft | 365 kts | 114° |
| 2026-05-08 07:13 | 54.98814 | 82.85688 | 12767 ft | 371 kts | 114° |
| 2026-05-08 07:14 | 54.97783 | 82.89837 | 13535 ft | 376 kts | 114° |
| 2026-05-08 07:14 | 54.96714 | 82.94025 | 14239 ft | 381 kts | 115° |
| 2026-05-08 07:14 | 54.95604 | 82.98244 | 14922 ft | 386 kts | 115° |
| 2026-05-08 07:14 | 54.94459 | 83.02502 | 15587 ft | 391 kts | 116° |
| 2026-05-08 07:15 | 54.93388 | 83.06879 | 16245 ft | 396 kts | 109° |
| 2026-05-08 07:15 | 54.92725 | 83.11558 | 16903 ft | 402 kts | 98° |
| 2026-05-08 07:15 | 54.92486 | 83.16420 | 17553 ft | 406 kts | 93° |
| 2026-05-08 07:15 | 54.92304 | 83.21347 | 18210 ft | 411 kts | 93° |
| 2026-05-08 07:16 | 54.92114 | 83.26318 | 18749 ft | 415 kts | 93° |
| 2026-05-08 07:16 | 54.91916 | 83.31365 | 19298 ft | 420 kts | 94° |
| 2026-05-08 07:16 | 54.91781 | 83.34787 | 19665 ft | 422 kts | 94° |
| 2026-05-08 07:16 | 54.91577 | 83.39906 | 20203 ft | 427 kts | 94° |
| 2026-05-08 07:17 | 54.91368 | 83.45073 | 20737 ft | 431 kts | 94° |
| 2026-05-08 07:17 | 54.91155 | 83.50288 | 21266 ft | 435 kts | 94° |
| 2026-05-08 07:17 | 54.90937 | 83.55550 | 21771 ft | 439 kts | 94° |
| 2026-05-08 07:17 | 54.90715 | 83.60860 | 22263 ft | 442 kts | 94° |
| 2026-05-08 07:18 | 54.90488 | 83.66216 | 22764 ft | 446 kts | 94° |
| 2026-05-08 07:18 | 54.90253 | 83.71641 | 22939 ft | 456 kts | 94° |
| 2026-05-08 07:18 | 54.90008 | 83.77222 | 22969 ft | 470 kts | 94° |
| 2026-05-08 07:18 | 54.89751 | 83.82970 | 22968 ft | 484 kts | 94° |
| 2026-05-08 07:19 | 54.89487 | 83.88866 | 22967 ft | 495 kts | 94° |
| 2026-05-08 07:19 | 54.89217 | 83.94877 | 22968 ft | 505 kts | 94° |
| 2026-05-08 07:19 | 54.88940 | 84.01008 | 22961 ft | 510 kts | 94° |
| 2026-05-08 07:19 | 54.88657 | 84.07239 | 22964 ft | 511 kts | 94° |
| 2026-05-08 07:20 | 54.88377 | 84.13311 | 22964 ft | 511 kts | 94° |
| 2026-05-08 07:20 | 54.88088 | 84.19534 | 22963 ft | 511 kts | 94° |
| 2026-05-08 07:20 | 54.87799 | 84.25618 | 22961 ft | 511 kts | 94° |
| 2026-05-08 07:20 | 54.87500 | 84.31838 | 22963 ft | 511 kts | 94° |
| 2026-05-08 07:21 | 54.87201 | 84.37999 | 22964 ft | 511 kts | 94° |
| 2026-05-08 07:21 | 54.86901 | 84.44130 | 22964 ft | 511 kts | 94° |
| 2026-05-08 07:21 | 54.86599 | 84.50225 | 22952 ft | 497 kts | 94° |
| 2026-05-08 07:21 | 54.86306 | 84.56052 | 22959 ft | 474 kts | 94° |
| 2026-05-08 07:22 | 54.86119 | 84.61700 | 22962 ft | 465 kts | 88° |
| 2026-05-08 07:22 | 54.86392 | 84.67268 | 22963 ft | 462 kts | 79° |
| 2026-05-08 07:22 | 54.87149 | 84.72662 | 22962 ft | 459 kts | 69° |
| 2026-05-08 07:22 | 54.88309 | 84.77814 | 22960 ft | 458 kts | 65° |
| 2026-05-08 07:23 | 54.89508 | 84.82938 | 22963 ft | 458 kts | 66° |
| 2026-05-08 07:23 | 54.90695 | 84.88069 | 22829 ft | 455 kts | 66° |
| 2026-05-08 07:23 | 54.91850 | 84.93103 | 21928 ft | 441 kts | 66° |
| 2026-05-08 07:23 | 54.92970 | 84.98022 | 21313 ft | 435 kts | 66° |
| 2026-05-08 07:24 | 54.94080 | 85.02897 | 20678 ft | 432 kts | 66° |
| 2026-05-08 07:24 | 54.95184 | 85.07731 | 20079 ft | 428 kts | 66° |
| 2026-05-08 07:24 | 54.96281 | 85.12526 | 19498 ft | 425 kts | 66° |
| 2026-05-08 07:24 | 54.97367 | 85.17286 | 18937 ft | 422 kts | 66° |
| 2026-05-08 07:25 | 54.98444 | 85.22012 | 18381 ft | 418 kts | 67° |
| 2026-05-08 07:25 | 54.99520 | 85.26755 | 17795 ft | 415 kts | 67° |
| 2026-05-08 07:25 | 55.01613 | 85.35993 | 16713 ft | 406 kts | 67° |
| 2026-05-08 07:26 | 55.02642 | 85.40561 | 16143 ft | 402 kts | 68° |
| 2026-05-08 07:26 | 55.03655 | 85.45080 | 15568 ft | 400 kts | 68° |
| 2026-05-08 07:26 | 55.04662 | 85.49586 | 15010 ft | 398 kts | 68° |
| 2026-05-08 07:26 | 55.05665 | 85.54067 | 14416 ft | 394 kts | 68° |
| 2026-05-08 07:27 | 55.06640 | 85.58437 | 13834 ft | 382 kts | 68° |
| 2026-05-08 07:27 | 55.07602 | 85.62760 | 13182 ft | 382 kts | 68° |
| 2026-05-08 07:27 | 55.08561 | 85.67068 | 12585 ft | 380 kts | 68° |
| 2026-05-08 07:27 | 55.09515 | 85.71355 | 11970 ft | 378 kts | 68° |
| 2026-05-08 07:28 | 55.10457 | 85.75598 | 11344 ft | 368 kts | 68° |
| 2026-05-08 07:28 | 55.11367 | 85.79724 | 10776 ft | 363 kts | 68° |
| 2026-05-08 07:28 | 55.12255 | 85.83757 | 10618 ft | 348 kts | 68° |
| 2026-05-08 07:28 | 55.13107 | 85.87624 | 10490 ft | 335 kts | 68° |
| 2026-05-08 07:29 | 55.13926 | 85.91350 | 10368 ft | 322 kts | 68° |
| 2026-05-08 07:29 | 55.14712 | 85.94928 | 10168 ft | 308 kts | 68° |
| 2026-05-08 07:29 | 55.15466 | 85.98369 | 9769 ft | 298 kts | 68° |
| 2026-05-08 07:29 | 55.16208 | 86.01750 | 9633 ft | 299 kts | 68° |
| 2026-05-08 07:30 | 55.16953 | 86.05147 | 9514 ft | 298 kts | 68° |
| 2026-05-08 07:30 | 55.17695 | 86.08544 | 9158 ft | 299 kts | 68° |
| 2026-05-08 07:30 | 55.18428 | 86.11912 | 8645 ft | 294 kts | 68° |
| 2026-05-08 07:30 | 55.19160 | 86.15293 | 8126 ft | 292 kts | 68° |
| 2026-05-08 07:31 | 55.19901 | 86.18587 | 7616 ft | 289 kts | 63° |
| 2026-05-08 07:31 | 55.20953 | 86.21552 | 7034 ft | 285 kts | 51° |
| 2026-05-08 07:31 | 55.22161 | 86.24281 | 6409 ft | 283 kts | 50° |
| 2026-05-08 07:31 | 55.23357 | 86.27002 | 5760 ft | 280 kts | 51° |
| 2026-05-08 07:32 | 55.24538 | 86.29700 | 5159 ft | 278 kts | 51° |
| 2026-05-08 07:32 | 55.25706 | 86.32387 | 4565 ft | 276 kts | 51° |
| 2026-05-08 07:32 | 55.26874 | 86.35050 | 3952 ft | 274 kts | 48° |
| 2026-05-08 07:32 | 55.28353 | 86.37046 | 3382 ft | 268 kts | 20° |
| 2026-05-08 07:33 | 55.30128 | 86.37539 | 3100 ft | 248 kts | 351° |
| 2026-05-08 07:33 | 55.31675 | 86.36726 | 3033 ft | 222 kts | 327° |
| 2026-05-08 07:33 | 55.32808 | 86.35079 | 2914 ft | 204 kts | 304° |
| 2026-05-08 07:33 | 55.33459 | 86.32986 | 2796 ft | 190 kts | 284° |
| 2026-05-08 07:34 | 55.33780 | 86.30756 | 2674 ft | 188 kts | 281° |
| 2026-05-08 07:34 | 55.33913 | 86.28515 | 2564 ft | 185 kts | 261° |
| 2026-05-08 07:34 | 55.33534 | 86.26389 | 2514 ft | 184 kts | 239° |
| 2026-05-08 07:34 | 55.32804 | 86.24566 | 2346 ft | 182 kts | 233° |
| 2026-05-08 07:35 | 55.32060 | 86.22801 | 2173 ft | 176 kts | 232° |
| 2026-05-08 07:35 | 55.31349 | 86.21107 | 1946 ft | 169 kts | 233° |
| 2026-05-08 07:35 | 55.30671 | 86.19491 | 1739 ft | 161 kts | 232° |
| 2026-05-08 07:35 | 55.30032 | 86.17970 | 1542 ft | 150 kts | 234° |
| 2026-05-08 07:36 | 55.29429 | 86.16533 | 1366 ft | 142 kts | 234° |
| 2026-05-08 07:36 | 55.28843 | 86.15140 | 1193 ft | 139 kts | 233° |
| 2026-05-08 07:36 | 55.28263 | 86.13751 | 1024 ft | 141 kts | 235° |
| 2026-05-08 07:36 | 55.27686 | 86.12364 | 863 ft | 139 kts | 234° |
| 2026-05-08 07:37 | 55.27184 | 86.11181 | 845 ft | 97 kts | 233° |
| 2026-05-08 07:37 | 55.26886 | 86.10474 | 834 ft | 49 kts | 233° |
| 2026-05-08 07:37 | 55.26711 | 86.10058 | 839 ft | 33 kts | 234° |
| 2026-05-08 07:37 | 55.26673 | 86.09861 | 837 ft | 12 kts | 314° |
| 2026-05-08 07:38 | 55.26763 | 86.09880 | 840 ft | 16 kts | 19° |
| 2026-05-08 07:38 | 55.26884 | 86.09949 | 840 ft | 20 kts | 17° |
| 2026-05-08 07:38 | 55.27033 | 86.10034 | 842 ft | 25 kts | 18° |
| 2026-05-08 07:38 | 55.27208 | 86.10133 | 843 ft | 28 kts | 18° |
| 2026-05-08 07:39 | 55.27349 | 86.10379 | 837 ft | 31 kts | 56° |
| 2026-05-08 07:39 | 55.27478 | 86.10707 | 840 ft | 34 kts | 55° |
| 2026-05-08 07:39 | 55.27619 | 86.11062 | 840 ft | 37 kts | 55° |
| 2026-05-08 07:39 | 55.27768 | 86.11443 | 847 ft | 39 kts | 54° |
| 2026-05-08 07:40 | 55.27874 | 86.11680 | 837 ft | 11 kts | 12° |
| 2026-05-08 07:40 | 55.27945 | 86.11608 | 848 ft | 13 kts | 325° |
| 2026-05-08 07:40 | 55.27966 | 86.11582 | 837 ft | 0 kts | 325° |